Time;durP1;ratioP1;P1;durP2;ratioP2;P2;SDS_P1;SDS_P2;PMS_P1;PMS_P2;Temp;Humidity;BMP_temperature;BMP_pressure;BME280_temperature;BME280_humidity;BME280_pressure;Samples;Min_cycle;Max_cycle;Signal;HPM_P1;HPM_P2
2021/11/15 00:01:43;;;;;;;53.47;30.60;;;8.10;99.90;;;;;;5119574;28;20452;-68
2021/11/15 00:04:12;;;;;;;52.40;29.37;;;8.10;99.90;;;;;;5118622;28;20448;-69
2021/11/15 00:06:39;;;;;;;56.03;29.20;;;8.10;99.90;;;;;;5118731;28;20445;-68
2021/11/15 00:09:06;;;;;;;54.90;29.10;;;8.10;99.90;;;;;;5118763;28;20576;-68
2021/11/15 00:11:33;;;;;;;54.53;30.30;;;8.10;99.90;;;;;;5118529;27;20446;-68
2021/11/15 00:14:02;;;;;;;52.80;28.73;;;8.20;99.90;;;;;;5119067;28;20452;-68
2021/11/15 00:16:29;;;;;;;56.20;30.27;;;8.20;99.90;;;;;;5119544;28;20769;-68
2021/11/15 00:18:56;;;;;;;57.80;29.33;;;8.20;99.90;;;;;;5121139;28;20452;-68
2021/11/15 00:21:24;;;;;;;50.33;27.63;;;8.20;99.90;;;;;;5119275;28;20544;-68
2021/11/15 00:23:51;;;;;;;49.67;29.63;;;8.20;99.90;;;;;;5119012;27;20467;-68
2021/11/15 00:26:17;;;;;;;49.73;29.07;;;8.20;99.90;;;;;;5119314;28;20456;-68
2021/11/15 00:28:44;;;;;;;47.77;27.27;;;8.20;99.90;;;;;;5119718;28;20452;-68
2021/11/15 00:31:11;;;;;;;59.33;28.67;;;8.20;99.90;;;;;;5119593;27;20793;-68
2021/11/15 00:33:38;;;;;;;50.00;28.37;;;8.20;99.90;;;;;;5118986;28;20911;-68
2021/11/15 00:36:06;;;;;;;52.47;28.87;;;8.20;99.90;;;;;;5119531;28;20520;-68
2021/11/15 00:38:34;;;;;;;52.63;29.00;;;8.20;99.90;;;;;;5118579;28;20476;-68
2021/11/15 00:41:02;;;;;;;49.03;27.93;;;8.20;99.90;;;;;;5119966;27;20774;-68
2021/11/15 00:43:29;;;;;;;49.40;27.10;;;8.20;99.90;;;;;;5119888;28;20453;-68
2021/11/15 00:45:56;;;;;;;52.67;27.50;;;8.20;99.90;;;;;;5120156;28;20466;-68
2021/11/15 00:48:23;;;;;;;50.90;29.13;;;8.20;99.90;;;;;;5119741;28;20783;-68
2021/11/15 00:50:50;;;;;;;51.73;28.97;;;8.20;99.90;;;;;;5120088;28;20470;-70
2021/11/15 00:53:17;;;;;;;49.07;29.20;;;8.20;99.90;;;;;;5120351;28;20460;-68
2021/11/15 00:55:45;;;;;;;46.37;27.40;;;8.10;99.90;;;;;;5120329;28;20467;-69
2021/11/15 00:58:12;;;;;;;47.47;27.57;;;8.10;99.90;;;;;;5119882;28;20508;-69
2021/11/15 01:00:41;;;;;;;55.73;29.50;;;8.10;99.90;;;;;;5119976;28;20779;-69
2021/11/15 01:03:09;;;;;;;46.17;25.30;;;8.00;99.90;;;;;;5120095;28;20908;-68
2021/11/15 01:05:38;;;;;;;56.27;30.07;;;8.00;99.90;;;;;;5120913;28;20548;-69
2021/11/15 01:08:06;;;;;;;47.33;27.57;;;8.00;99.90;;;;;;5120622;28;20465;-68
2021/11/15 01:10:34;;;;;;;52.97;29.43;;;8.00;99.90;;;;;;5120432;28;20467;-68
2021/11/15 01:13:03;;;;;;;50.13;26.73;;;8.00;99.90;;;;;;5119136;28;20534;-68
2021/11/15 01:15:31;;;;;;;53.13;28.80;;;7.90;99.90;;;;;;5118832;28;20468;-68
2021/11/15 01:17:59;;;;;;;45.03;27.90;;;8.00;99.90;;;;;;5118793;28;20586;-67
2021/11/15 01:20:29;;;;;;;53.60;28.23;;;7.90;99.90;;;;;;5118520;28;20462;-68
2021/11/15 01:22:57;;;;;;;47.80;27.53;;;7.90;99.90;;;;;;5118656;28;20478;-69
2021/11/15 01:25:31;;;;;;;52.63;28.10;;;7.90;99.90;;;;;;5118387;28;20578;-68
2021/11/15 01:27:57;;;;;;;51.87;26.77;;;7.90;99.90;;;;;;5118762;28;20435;-69
2021/11/15 01:30:29;;;;;;;45.53;26.43;;;7.90;99.90;;;;;;5118940;28;20556;-69
2021/11/15 01:32:58;;;;;;;52.50;27.97;;;7.90;99.90;;;;;;5118640;28;20439;-70
2021/11/15 01:35:26;;;;;;;49.00;25.83;;;7.90;99.90;;;;;;5119185;28;20462;-68
2021/11/15 01:37:53;;;;;;;50.10;28.07;;;8.00;99.90;;;;;;5118789;28;20536;-68
2021/11/15 01:40:23;;;;;;;50.70;28.80;;;8.00;99.90;;;;;;5118815;28;20467;-68
2021/11/15 01:42:51;;;;;;;48.40;27.30;;;8.00;99.90;;;;;;5118900;28;20461;-69
2021/11/15 01:45:23;;;;;;;50.47;26.97;;;8.00;99.90;;;;;;5118955;28;20467;-69
2021/11/15 01:47:52;;;;;;;47.37;26.63;;;8.00;99.90;;;;;;5119058;28;20429;-69
2021/11/15 01:50:19;;;;;;;53.17;29.97;;;7.90;99.90;;;;;;5119069;28;20471;-68
2021/11/15 01:52:47;;;;;;;47.83;28.13;;;8.00;99.90;;;;;;5118357;28;20490;-68
2021/11/15 01:55:15;;;;;;;48.90;27.00;;;8.00;99.90;;;;;;5119213;28;20456;-68
2021/11/15 01:57:43;;;;;;;50.03;27.27;;;8.00;99.90;;;;;;5118651;28;20479;-68
2021/11/15 02:00:13;;;;;;;46.20;25.43;;;8.00;99.90;;;;;;5118524;28;20470;-69
2021/11/15 02:02:40;;;;;;;58.60;27.37;;;8.00;99.90;;;;;;5118391;28;20455;-68
2021/11/15 02:05:09;;;;;;;45.20;27.00;;;8.00;99.90;;;;;;5118419;28;20476;-69
2021/11/15 02:07:36;;;;;;;44.50;27.27;;;8.00;99.90;;;;;;5118139;28;20554;-69
2021/11/15 02:10:09;;;;;;;49.20;28.20;;;8.00;99.90;;;;;;5118183;28;20454;-68
2021/11/15 02:12:38;;;;;;;48.53;27.20;;;8.00;99.90;;;;;;5118455;28;20448;-68
2021/11/15 02:15:07;;;;;;;51.20;28.67;;;8.00;99.90;;;;;;5117831;28;20450;-68
2021/11/15 02:17:34;;;;;;;48.10;27.57;;;8.00;99.90;;;;;;5118239;28;20552;-68
2021/11/15 02:20:06;;;;;;;51.87;29.20;;;8.00;99.90;;;;;;5118499;28;20456;-68
2021/11/15 02:22:34;;;;;;;46.30;26.63;;;8.00;99.90;;;;;;5118709;28;20435;-68
2021/11/15 02:25:06;;;;;;;53.53;29.10;;;8.00;99.90;;;;;;5118242;28;20972;-68
2021/11/15 02:27:34;;;;;;;48.73;29.03;;;7.90;99.90;;;;;;5118010;28;20443;-68
2021/11/15 02:30:00;;;;;;;51.23;28.63;;;8.00;99.90;;;;;;5118370;28;20466;-68
2021/11/15 02:32:28;;;;;;;47.37;26.30;;;8.00;99.90;;;;;;5118096;28;20452;-68
2021/11/15 02:34:57;;;;;;;48.40;29.20;;;8.00;99.90;;;;;;5118775;28;20463;-68
2021/11/15 02:37:24;;;;;;;46.70;26.57;;;8.00;99.90;;;;;;5119502;28;20456;-68
2021/11/15 02:39:52;;;;;;;52.73;29.70;;;8.00;99.90;;;;;;5121996;28;20473;-68
2021/11/15 02:42:20;;;;;;;52.00;28.50;;;8.00;99.90;;;;;;5121721;28;20936;-68
2021/11/15 02:44:46;;;;;;;51.80;28.07;;;8.00;99.90;;;;;;5122717;28;20561;-68
2021/11/15 02:47:13;;;;;;;51.97;27.80;;;8.00;99.90;;;;;;5122294;28;20462;-68
2021/11/15 02:49:40;;;;;;;49.73;27.03;;;8.00;99.90;;;;;;5120750;28;20928;-68
2021/11/15 02:52:08;;;;;;;50.70;28.20;;;8.00;99.90;;;;;;5121877;28;20460;-68
2021/11/15 02:54:35;;;;;;;51.03;28.37;;;8.00;99.90;;;;;;5121591;28;20460;-68
2021/11/15 02:57:04;;;;;;;50.00;29.00;;;8.10;99.90;;;;;;5122318;28;20466;-68
2021/11/15 02:59:31;;;;;;;46.90;27.23;;;8.10;99.90;;;;;;5120952;27;20961;-68
2021/11/15 03:01:57;;;;;;;51.47;28.13;;;8.10;99.90;;;;;;5121285;28;20460;-68
2021/11/15 03:04:24;;;;;;;44.63;27.80;;;8.10;99.90;;;;;;5122280;28;20456;-68
2021/11/15 03:06:51;;;;;;;57.30;29.53;;;8.00;99.90;;;;;;5121702;28;20456;-68
2021/11/15 03:09:18;;;;;;;50.07;28.13;;;8.10;99.90;;;;;;5121531;28;20451;-68
2021/11/15 03:11:47;;;;;;;48.37;27.07;;;8.00;99.90;;;;;;5122157;27;20456;-68
2021/11/15 03:14:15;;;;;;;50.23;27.60;;;8.00;99.90;;;;;;5122067;28;20464;-68
2021/11/15 03:16:42;;;;;;;50.53;29.50;;;8.00;99.90;;;;;;5121707;28;20471;-68
2021/11/15 03:19:08;;;;;;;50.50;28.53;;;8.00;99.90;;;;;;5121436;28;20472;-68
2021/11/15 03:21:35;;;;;;;49.30;28.03;;;8.10;99.90;;;;;;5121298;28;20480;-68
2021/11/15 03:24:02;;;;;;;46.30;26.07;;;8.10;99.90;;;;;;5121626;27;20467;-68
2021/11/15 03:26:28;;;;;;;46.90;25.27;;;8.10;99.90;;;;;;5121128;28;20460;-68
2021/11/15 03:28:57;;;;;;;45.33;29.27;;;8.10;99.90;;;;;;5121229;28;20749;-69
2021/11/15 03:31:27;;;;;;;47.93;26.93;;;8.00;99.90;;;;;;5121309;28;20472;-68
2021/11/15 03:33:56;;;;;;;44.57;26.27;;;8.00;99.90;;;;;;5122588;27;20470;-68
2021/11/15 03:36:23;;;;;;;47.87;27.87;;;8.10;99.90;;;;;;5121434;28;20780;-68
2021/11/15 03:38:51;;;;;;;45.70;27.23;;;8.10;99.90;;;;;;5121202;28;20490;-68
2021/11/15 03:41:18;;;;;;;52.60;29.27;;;8.00;99.90;;;;;;5121688;28;20448;-68
2021/11/15 03:43:46;;;;;;;47.77;27.87;;;8.10;99.90;;;;;;5121686;28;20481;-68
2021/11/15 03:46:14;;;;;;;47.93;29.30;;;8.10;99.90;;;;;;5120673;28;20513;-68
2021/11/15 03:48:42;;;;;;;51.40;28.43;;;8.00;99.90;;;;;;5119748;28;20451;-68
2021/11/15 03:51:08;;;;;;;48.37;27.40;;;8.00;99.90;;;;;;5121248;28;20460;-68
2021/11/15 03:53:37;;;;;;;46.80;27.63;;;8.10;99.90;;;;;;5120807;28;20494;-68
2021/11/15 03:56:10;;;;;;;53.60;29.97;;;8.10;99.90;;;;;;5121423;28;20456;-68
2021/11/15 03:58:37;;;;;;;47.37;28.10;;;8.00;99.90;;;;;;5120631;28;20468;-68
2021/11/15 04:01:06;;;;;;;43.77;26.87;;;8.00;99.90;;;;;;5120365;28;20478;-68
2021/11/15 04:03:34;;;;;;;47.07;27.30;;;8.00;99.90;;;;;;5119996;28;20463;-68
2021/11/15 04:06:06;;;;;;;51.77;30.60;;;8.00;99.90;;;;;;5119884;28;20452;-68
2021/11/15 04:08:34;;;;;;;54.03;28.23;;;8.00;99.90;;;;;;5120797;28;20433;-68
2021/11/15 04:11:03;;;;;;;50.97;30.17;;;8.00;99.90;;;;;;5120881;28;20457;-68
2021/11/15 04:13:35;;;;;;;52.17;29.20;;;8.00;99.90;;;;;;5121195;28;20823;-68
2021/11/15 04:16:05;;;;;;;48.60;28.43;;;8.00;99.90;;;;;;5119600;28;20539;-68
2021/11/15 04:18:36;;;;;;;52.37;28.80;;;7.90;99.90;;;;;;5120134;28;20488;-67
2021/11/15 04:21:06;;;;;;;50.63;27.83;;;7.90;99.90;;;;;;5119630;28;20975;-68
2021/11/15 04:23:33;;;;;;;47.67;27.73;;;8.00;99.90;;;;;;5120012;28;20500;-68
2021/11/15 04:25:59;;;;;;;48.77;28.07;;;8.00;99.90;;;;;;5119881;28;20761;-68
2021/11/15 04:28:26;;;;;;;49.47;28.53;;;7.90;99.90;;;;;;5119093;27;20455;-68
2021/11/15 04:30:53;;;;;;;47.73;28.40;;;8.00;99.90;;;;;;5119027;28;20508;-68
2021/11/15 04:33:19;;;;;;;52.10;29.23;;;8.00;99.90;;;;;;5119336;28;20482;-68
2021/11/15 04:35:46;;;;;;;51.53;27.00;;;8.00;99.90;;;;;;5119019;28;20452;-68
2021/11/15 04:38:14;;;;;;;44.87;26.90;;;8.00;99.90;;;;;;5119329;28;20478;-68
2021/11/15 04:40:41;;;;;;;50.60;28.30;;;7.90;99.90;;;;;;5119539;28;20471;-68
2021/11/15 04:43:08;;;;;;;46.07;26.57;;;7.90;99.90;;;;;;5119654;28;20470;-68
2021/11/15 04:45:35;;;;;;;46.77;29.37;;;8.00;99.90;;;;;;5120222;28;20920;-68
2021/11/15 04:48:03;;;;;;;46.33;27.23;;;7.90;99.90;;;;;;5119461;28;20451;-68
2021/11/15 04:50:30;;;;;;;47.43;27.90;;;7.90;99.90;;;;;;5118905;28;20455;-69
2021/11/15 04:52:58;;;;;;;48.50;28.63;;;7.90;99.90;;;;;;5118597;28;20474;-69
2021/11/15 04:55:26;;;;;;;51.10;28.10;;;7.90;99.90;;;;;;5118582;28;20551;-69
2021/11/15 04:57:57;;;;;;;50.60;29.70;;;7.90;99.90;;;;;;5118214;28;20467;-68
2021/11/15 05:00:26;;;;;;;48.30;26.53;;;7.90;99.90;;;;;;5117858;28;20772;-67
2021/11/15 05:02:54;;;;;;;50.67;28.77;;;8.00;99.90;;;;;;5118025;28;20482;-67
2021/11/15 05:05:21;;;;;;;48.00;29.60;;;8.00;99.90;;;;;;5118537;27;20470;-67
2021/11/15 05:07:53;;;;;;;54.93;28.80;;;8.00;99.90;;;;;;5119586;28;20519;-67
2021/11/15 05:10:26;;;;;;;53.33;29.27;;;8.00;99.90;;;;;;5118541;28;20439;-67
2021/11/15 05:12:56;;;;;;;53.37;27.70;;;7.90;99.90;;;;;;5118806;28;20449;-68
2021/11/15 05:15:23;;;;;;;50.30;28.97;;;7.90;99.90;;;;;;5118802;28;20454;-68
2021/11/15 05:17:51;;;;;;;52.20;29.10;;;7.90;99.90;;;;;;5118495;28;20456;-68
2021/11/15 05:20:19;;;;;;;50.60;27.30;;;8.00;99.90;;;;;;5117683;28;20573;-68
2021/11/15 05:22:49;;;;;;;51.90;28.90;;;7.90;99.90;;;;;;5118727;28;20722;-69
2021/11/15 05:25:17;;;;;;;51.93;28.00;;;7.90;99.90;;;;;;5118034;28;20464;-69
2021/11/15 05:27:44;;;;;;;48.03;28.53;;;7.90;99.90;;;;;;5118444;28;20446;-67
2021/11/15 05:30:15;;;;;;;51.10;28.17;;;8.00;99.90;;;;;;5118343;28;20459;-69
2021/11/15 05:32:42;;;;;;;52.90;28.57;;;8.00;99.90;;;;;;5118460;28;20439;-68
2021/11/15 05:35:10;;;;;;;55.70;30.40;;;7.90;99.90;;;;;;5118744;28;20460;-67
2021/11/15 05:37:37;;;;;;;51.90;31.03;;;8.00;99.90;;;;;;5118958;28;20466;-68
2021/11/15 05:40:05;;;;;;;47.33;28.60;;;7.90;99.90;;;;;;5118814;28;20964;-69
2021/11/15 05:42:31;;;;;;;50.93;29.57;;;7.90;99.90;;;;;;5118910;28;20520;-67
2021/11/15 05:44:58;;;;;;;48.67;27.33;;;8.00;99.90;;;;;;5119454;28;20493;-68
2021/11/15 05:47:26;;;;;;;53.60;27.83;;;7.90;99.90;;;;;;5118246;28;20463;-68
2021/11/15 05:49:53;;;;;;;49.17;29.77;;;8.00;99.90;;;;;;5118109;28;20455;-68
2021/11/15 05:52:22;;;;;;;55.10;29.77;;;8.00;99.90;;;;;;5118606;28;20472;-68
2021/11/15 05:54:49;;;;;;;53.07;29.67;;;8.00;99.90;;;;;;5118995;28;20464;-68
2021/11/15 05:57:16;;;;;;;64.00;36.27;;;8.00;99.90;;;;;;5118438;28;20459;-68
2021/11/15 05:59:44;;;;;;;57.27;30.10;;;8.00;99.90;;;;;;5118615;28;20480;-68
2021/11/15 06:02:11;;;;;;;51.50;29.30;;;8.00;99.90;;;;;;5118682;28;20464;-68
2021/11/15 06:04:38;;;;;;;45.83;27.97;;;8.10;99.90;;;;;;5118123;28;20509;-68
2021/11/15 06:07:06;;;;;;;51.50;29.40;;;8.10;99.90;;;;;;5118971;28;20467;-68
2021/11/15 06:09:33;;;;;;;53.37;28.90;;;8.00;99.90;;;;;;5118313;28;20485;-68
2021/11/15 06:12:00;;;;;;;49.30;27.13;;;8.00;99.90;;;;;;5119822;28;20457;-68
2021/11/15 06:14:27;;;;;;;50.27;27.73;;;8.00;99.90;;;;;;5122208;28;20455;-68
2021/11/15 06:16:53;;;;;;;50.80;29.27;;;8.10;99.90;;;;;;5122182;27;20459;-68
2021/11/15 06:19:20;;;;;;;54.20;29.27;;;8.10;99.90;;;;;;5121806;28;20493;-68
2021/11/15 06:21:48;;;;;;;50.13;26.87;;;8.10;99.90;;;;;;5121640;28;20491;-68
2021/11/15 06:24:15;;;;;;;50.80;29.00;;;8.10;99.90;;;;;;5122092;28;20467;-68
2021/11/15 06:26:42;;;;;;;48.80;28.37;;;8.10;99.90;;;;;;5121958;28;20463;-68
2021/11/15 06:29:08;;;;;;;46.07;27.10;;;8.10;99.90;;;;;;5121174;28;20452;-68
2021/11/15 06:31:35;;;;;;;51.23;27.07;;;8.00;99.90;;;;;;5121914;28;20536;-68
2021/11/15 06:34:02;;;;;;;54.00;28.60;;;8.00;99.90;;;;;;5122410;28;20936;-69
2021/11/15 06:36:28;;;;;;;57.07;27.33;;;8.00;99.90;;;;;;5122047;28;20816;-68
2021/11/15 06:38:58;;;;;;;51.40;27.30;;;8.00;99.90;;;;;;5122351;28;20484;-68
2021/11/15 06:41:28;;;;;;;46.27;27.50;;;8.00;99.90;;;;;;5123025;28;20459;-68
2021/11/15 06:43:56;;;;;;;47.80;26.73;;;8.10;99.90;;;;;;5122664;28;20470;-67
2021/11/15 06:46:23;;;;;;;47.33;28.10;;;8.00;99.90;;;;;;5122611;28;20532;-67
2021/11/15 06:48:52;;;;;;;48.70;26.87;;;8.00;99.90;;;;;;5121825;28;20467;-68
2021/11/15 06:51:19;;;;;;;53.23;28.13;;;8.00;99.90;;;;;;5117717;28;20461;-68
2021/11/15 06:53:46;;;;;;;51.67;29.07;;;8.10;99.90;;;;;;5117969;28;20787;-68
2021/11/15 06:56:14;;;;;;;48.03;29.37;;;8.00;99.90;;;;;;5117339;28;20454;-68
2021/11/15 06:58:41;;;;;;;48.93;28.27;;;8.00;99.90;;;;;;5117920;28;20472;-68
2021/11/15 07:01:08;;;;;;;45.30;27.13;;;8.10;99.90;;;;;;5117777;28;20460;-68
2021/11/15 07:03:38;;;;;;;52.93;27.30;;;8.10;99.90;;;;;;5118039;28;20452;-68
2021/11/15 07:06:04;;;;;;;49.23;27.27;;;8.10;99.90;;;;;;5117542;28;20451;-69
2021/11/15 07:08:31;;;;;;;48.70;25.77;;;8.10;99.90;;;;;;5117201;28;20453;-68
2021/11/15 07:10:58;;;;;;;47.30;26.00;;;8.20;99.90;;;;;;5117683;28;20541;-68
2021/11/15 07:13:26;;;;;;;50.27;25.40;;;8.10;99.90;;;;;;5117605;28;20522;-68
2021/11/15 07:15:52;;;;;;;48.30;26.00;;;8.10;99.90;;;;;;5117403;28;20490;-68
2021/11/15 07:18:19;;;;;;;47.33;25.40;;;8.10;99.90;;;;;;5117505;28;20471;-69
2021/11/15 07:20:47;;;;;;;43.27;24.70;;;8.10;99.90;;;;;;5116870;28;20954;-69
2021/11/15 07:23:16;;;;;;;43.93;25.33;;;8.10;99.90;;;;;;5116490;28;20827;-69
2021/11/15 07:25:43;;;;;;;42.50;25.63;;;8.10;99.90;;;;;;5117175;28;20765;-69
2021/11/15 07:28:09;;;;;;;45.83;25.20;;;8.20;99.90;;;;;;5117241;27;20545;-69
2021/11/15 07:30:38;;;;;;;45.60;24.73;;;8.10;99.90;;;;;;5116906;28;20970;-69
2021/11/15 07:33:05;;;;;;;42.57;25.03;;;8.10;99.90;;;;;;5117113;27;20470;-68
2021/11/15 07:35:32;;;;;;;41.40;23.47;;;8.10;99.90;;;;;;5116670;27;20955;-68
2021/11/15 07:37:59;;;;;;;47.23;24.73;;;8.10;99.90;;;;;;5116752;28;20880;-68
2021/11/15 07:40:26;;;;;;;42.97;22.87;;;8.10;99.90;;;;;;5116544;28;20799;-68
2021/11/15 07:42:53;;;;;;;45.33;25.77;;;8.10;99.90;;;;;;5116799;28;20468;-69
2021/11/15 07:45:20;;;;;;;38.50;22.03;;;8.20;99.90;;;;;;5116885;28;20453;-68
2021/11/15 07:47:48;;;;;;;37.87;22.30;;;8.20;99.90;;;;;;5116258;28;20460;-68
2021/11/15 07:50:16;;;;;;;41.13;23.40;;;8.20;99.90;;;;;;5116211;28;20892;-68
2021/11/15 07:52:42;;;;;;;40.23;24.60;;;8.30;99.90;;;;;;5116580;28;20531;-68
2021/11/15 07:55:12;;;;;;;42.70;22.20;;;8.30;99.90;;;;;;5116733;28;20456;-69
2021/11/15 07:57:42;;;;;;;47.73;24.67;;;8.30;99.90;;;;;;5116667;28;20763;-68
2021/11/15 08:00:11;;;;;;;41.53;22.20;;;8.30;99.90;;;;;;5117055;28;20583;-68
2021/11/15 08:02:38;;;;;;;38.53;22.93;;;8.30;99.90;;;;;;5116088;28;20921;-67
2021/11/15 08:05:07;;;;;;;38.87;22.30;;;8.40;99.90;;;;;;5116489;28;20460;-68
2021/11/15 08:07:34;;;;;;;37.83;21.47;;;8.40;99.90;;;;;;5116617;28;20460;-68
2021/11/15 08:10:01;;;;;;;37.50;22.20;;;8.40;99.90;;;;;;5116408;28;20453;-68
2021/11/15 08:12:35;;;;;;;37.87;22.20;;;8.50;99.90;;;;;;5116954;28;20460;-68
2021/11/15 08:15:04;;;;;;;44.63;24.40;;;8.50;99.90;;;;;;5116463;28;20934;-68
2021/11/15 08:17:31;;;;;;;32.50;20.73;;;8.40;99.90;;;;;;5116327;28;20556;-68
2021/11/15 08:19:58;;;;;;;40.93;22.83;;;8.40;99.90;;;;;;5115995;28;20480;-68
2021/11/15 08:22:28;;;;;;;34.90;21.33;;;8.40;99.90;;;;;;5115822;28;20544;-69
2021/11/15 08:25:30;;;;;;;38.07;19.63;;;8.40;99.90;;;;;;5115752;28;20456;-68
2021/11/15 08:27:58;;;;;;;38.57;20.30;;;8.40;99.90;;;;;;5116097;28;20475;-68
2021/11/15 08:30:25;;;;;;;39.87;20.40;;;8.40;99.90;;;;;;5115865;28;20445;-68
2021/11/15 08:32:53;;;;;;;35.37;20.40;;;8.40;99.90;;;;;;5115899;27;20524;-68
2021/11/15 08:35:23;;;;;;;41.40;22.57;;;8.30;99.90;;;;;;5115595;28;20757;-69
2021/11/15 08:38:16;;;;;;;35.93;20.33;;;8.30;99.90;;;;;;5115851;28;20658;-69
2021/11/15 08:40:43;;;;;;;35.00;20.13;;;8.30;99.90;;;;;;5115370;28;20519;-69
2021/11/15 08:43:10;;;;;;;34.73;19.93;;;8.40;99.90;;;;;;5115949;28;20529;-69
2021/11/15 08:45:38;;;;;;;35.10;19.77;;;8.40;99.90;;;;;;5115661;28;20460;-69
2021/11/15 08:48:05;;;;;;;33.60;19.57;;;8.40;99.90;;;;;;5115855;28;20842;-69
2021/11/15 08:50:33;;;;;;;34.47;19.87;;;8.50;99.90;;;;;;5115289;28;20456;-69
2021/11/15 08:53:04;;;;;;;37.37;20.43;;;8.50;99.90;;;;;;5115812;28;20453;-69
2021/11/15 08:55:31;;;;;;;35.30;18.80;;;8.50;99.90;;;;;;5115957;28;20761;-69
2021/11/15 08:58:00;;;;;;;39.73;19.00;;;8.50;99.90;;;;;;5115365;28;20462;-69
2021/11/15 09:00:27;;;;;;;37.27;20.17;;;8.50;99.90;;;;;;5115504;28;20484;-69
2021/11/15 09:02:57;;;;;;;33.80;19.67;;;8.50;99.90;;;;;;5115486;28;20460;-69
2021/11/15 09:05:23;;;;;;;33.07;18.93;;;8.50;99.90;;;;;;5115734;28;20571;-69
2021/11/15 09:07:51;;;;;;;33.10;18.00;;;8.50;99.90;;;;;;5115432;28;20472;-69
2021/11/15 09:10:19;;;;;;;39.13;20.40;;;8.50;99.90;;;;;;5115179;28;20943;-69
2021/11/15 09:12:47;;;;;;;34.57;19.30;;;8.50;99.90;;;;;;5114764;28;20522;-69
2021/11/15 09:15:16;;;;;;;33.43;18.83;;;8.50;99.90;;;;;;5115620;28;20551;-69
2021/11/15 09:17:44;;;;;;;45.03;19.93;;;8.50;99.90;;;;;;5115576;28;20455;-69
2021/11/15 09:20:15;;;;;;;36.97;18.33;;;8.50;99.90;;;;;;5115048;28;20475;-69
2021/11/15 09:22:42;;;;;;;32.27;17.87;;;8.50;99.90;;;;;;5115198;28;20452;-69
2021/11/15 09:25:11;;;;;;;29.63;17.83;;;8.50;99.90;;;;;;5115450;28;20464;-69
2021/11/15 09:27:41;;;;;;;34.93;18.93;;;8.50;99.90;;;;;;5115622;28;20495;-69
2021/11/15 09:30:10;;;;;;;34.97;21.47;;;8.40;99.90;;;;;;5114833;28;20532;-69
2021/11/15 09:32:37;;;;;;;33.40;19.53;;;8.40;99.90;;;;;;5114854;28;20921;-69
2021/11/15 09:35:06;;;;;;;34.20;20.53;;;8.40;99.90;;;;;;5114886;28;20464;-69
2021/11/15 09:37:33;;;;;;;32.60;18.70;;;8.40;99.90;;;;;;5115682;28;20466;-69
2021/11/15 09:40:00;;;;;;;34.57;20.20;;;8.40;99.90;;;;;;5114651;28;21002;-69
2021/11/15 09:42:27;;;;;;;32.90;20.53;;;8.50;99.90;;;;;;5115282;28;20793;-69
2021/11/15 09:44:55;;;;;;;35.77;19.80;;;8.40;99.90;;;;;;5115268;28;20822;-69
2021/11/15 09:47:22;;;;;;;43.00;20.33;;;8.40;99.90;;;;;;5114287;28;20460;-69
2021/11/15 09:49:49;;;;;;;37.63;20.43;;;8.40;99.90;;;;;;5114813;28;20449;-69
2021/11/15 09:52:16;;;;;;;36.90;19.57;;;8.40;99.90;;;;;;5117194;28;20453;-68
2021/11/15 09:54:46;;;;;;;38.80;20.10;;;8.50;99.90;;;;;;5120724;28;20456;-68
2021/11/15 09:57:15;;;;;;;37.93;19.83;;;8.50;99.90;;;;;;5120324;28;20452;-68
2021/11/15 09:59:44;;;;;;;33.40;19.40;;;8.50;99.90;;;;;;5120721;28;20483;-68
2021/11/15 10:02:13;;;;;;;32.33;18.43;;;8.50;99.90;;;;;;5120972;28;20462;-68
2021/11/15 10:04:40;;;;;;;32.07;18.57;;;8.50;99.90;;;;;;5120652;28;20533;-68
2021/11/15 10:07:07;;;;;;;33.87;19.37;;;8.60;99.90;;;;;;5120719;28;20488;-68
2021/11/15 10:09:42;;;;;;;32.50;18.60;;;8.60;99.90;;;;;;5120997;28;20464;-68
2021/11/15 10:12:11;;;;;;;32.53;18.80;;;8.60;99.90;;;;;;5120501;28;20443;-68
2021/11/15 10:15:01;;;;;;;37.80;19.33;;;8.60;99.90;;;;;;5119738;28;20463;-68
2021/11/15 10:17:44;;;;;;;34.37;20.10;;;8.60;99.90;;;;;;5119469;28;20461;-68
2021/11/15 10:20:11;;;;;;;37.57;20.57;;;8.70;99.90;;;;;;5119939;28;20475;-68
2021/11/15 10:22:39;;;;;;;33.30;18.87;;;8.60;99.90;;;;;;5120555;28;20474;-68
2021/11/15 10:25:07;;;;;;;31.03;18.30;;;8.60;99.90;;;;;;5120501;28;20458;-69
2021/11/15 10:27:35;;;;;;;31.17;19.53;;;8.70;99.90;;;;;;5121053;28;20543;-68
2021/11/15 10:30:10;;;;;;;31.83;18.43;;;8.70;99.90;;;;;;5121044;28;20484;-67
2021/11/15 10:32:42;;;;;;;33.10;19.10;;;8.70;99.90;;;;;;5120305;28;20440;-68
2021/11/15 10:35:11;;;;;;;33.10;18.40;;;8.70;99.90;;;;;;5120870;28;20449;-68
2021/11/15 10:37:42;;;;;;;30.60;17.60;;;8.70;99.90;;;;;;5120333;28;20467;-68
2021/11/15 10:40:12;;;;;;;29.40;17.70;;;8.70;99.90;;;;;;5120122;28;20531;-68
2021/11/15 10:42:45;;;;;;;33.17;20.27;;;8.80;99.90;;;;;;5120264;28;20455;-67
2021/11/15 10:45:18;;;;;;;32.13;19.10;;;8.80;99.90;;;;;;5120159;28;20468;-69
2021/11/15 10:47:51;;;;;;;33.37;18.73;;;8.70;99.90;;;;;;5119488;28;20437;-69
2021/11/15 10:50:25;;;;;;;30.60;17.83;;;8.70;99.90;;;;;;5119942;28;20439;-69
2021/11/15 10:53:01;;;;;;;27.30;17.07;;;8.70;99.90;;;;;;5120503;28;20966;-68
2021/11/15 10:55:28;;;;;;;29.17;17.17;;;8.60;99.90;;;;;;5119907;28;20436;-68
2021/11/15 10:57:55;;;;;;;31.33;17.03;;;8.60;99.90;;;;;;5119896;28;20466;-68
2021/11/15 11:00:26;;;;;;;28.47;16.73;;;8.50;99.90;;;;;;5123159;28;20734;-69
2021/11/15 11:02:57;;;;;;;26.97;17.97;;;8.50;99.90;;;;;;5123225;27;20474;-68
2021/11/15 11:05:27;;;;;;;33.80;17.50;;;8.50;99.90;;;;;;5123400;28;20450;-68
2021/11/15 11:08:09;;;;;;;31.00;17.70;;;8.50;99.90;;;;;;5124045;28;20453;-69
2021/11/15 11:10:45;;;;;;;32.53;17.53;;;8.50;99.90;;;;;;5124138;28;20447;-69
2021/11/15 11:13:15;;;;;;;26.30;16.00;;;8.50;99.90;;;;;;5123629;28;20484;-69
2021/11/15 11:15:45;;;;;;;25.70;16.23;;;8.50;99.90;;;;;;5124272;28;20456;-69
2021/11/15 11:18:16;;;;;;;35.07;19.20;;;8.50;99.90;;;;;;5124743;27;20463;-69
2021/11/15 11:23:46;;;;;;;30.57;19.60;;;8.40;99.90;;;;;;5100205;28;20545;-69
2021/11/15 11:26:15;;;;;;;27.90;16.50;;;8.50;99.90;;;;;;5122955;28;20453;-67
2021/11/15 11:28:45;;;;;;;30.60;17.63;;;8.50;99.90;;;;;;5124274;28;20958;-69
2021/11/15 11:31:14;;;;;;;32.03;18.20;;;8.60;99.90;;;;;;5122891;28;20877;-69
2021/11/15 11:33:42;;;;;;;31.80;18.30;;;8.60;99.90;;;;;;5122537;28;20449;-68
2021/11/15 11:36:11;;;;;;;28.43;18.27;;;8.60;99.90;;;;;;5122142;28;20452;-68
2021/11/15 11:38:40;;;;;;;27.00;17.10;;;8.70;99.90;;;;;;5123437;27;20456;-69
2021/11/15 11:41:07;;;;;;;29.13;17.40;;;8.70;99.90;;;;;;5122815;28;20477;-69
2021/11/15 11:43:34;;;;;;;28.53;18.90;;;8.70;99.90;;;;;;5122665;28;20468;-69
2021/11/15 11:46:04;;;;;;;31.20;17.33;;;8.70;99.90;;;;;;5123358;28;20461;-69
2021/11/15 11:48:31;;;;;;;28.83;16.70;;;8.70;99.90;;;;;;5124194;28;20482;-69
2021/11/15 11:50:59;;;;;;;25.37;17.03;;;8.80;99.90;;;;;;5122776;28;20470;-69
2021/11/15 11:53:31;;;;;;;28.73;16.40;;;8.80;99.90;;;;;;5122178;28;20476;-69
2021/11/15 11:55:59;;;;;;;24.83;16.37;;;8.70;99.90;;;;;;5122395;28;20861;-68
2021/11/15 11:58:31;;;;;;;26.47;17.77;;;8.70;99.90;;;;;;5123339;28;20468;-69
2021/11/15 12:00:59;;;;;;;29.80;17.73;;;8.70;99.90;;;;;;5122118;28;20541;-69
2021/11/15 12:03:27;;;;;;;29.00;17.70;;;8.70;99.90;;;;;;5123480;28;20835;-68
2021/11/15 12:05:55;;;;;;;32.33;18.80;;;8.70;99.90;;;;;;5122707;28;20762;-69
2021/11/15 12:08:54;;;;;;;33.50;19.03;;;8.70;99.90;;;;;;5122548;28;20839;-68
2021/11/15 12:11:25;;;;;;;31.67;18.47;;;8.70;99.90;;;;;;5122427;28;20452;-68
2021/11/15 12:13:53;;;;;;;32.60;18.10;;;8.70;99.90;;;;;;5121810;28;20452;-69
2021/11/15 12:16:20;;;;;;;32.50;17.90;;;8.60;99.90;;;;;;5122552;28;20453;-68
2021/11/15 12:18:58;;;;;;;28.47;16.83;;;8.60;99.90;;;;;;5121664;28;20570;-68
2021/11/15 12:21:25;;;;;;;30.40;16.57;;;8.60;99.90;;;;;;5121665;28;20471;-69
2021/11/15 12:24:17;;;;;;;28.13;17.30;;;8.60;99.90;;;;;;5122849;28;20927;-68
2021/11/15 12:26:48;;;;;;;31.27;17.37;;;8.60;99.90;;;;;;5122166;28;20452;-69
2021/11/15 12:29:21;;;;;;;28.90;17.10;;;8.70;99.90;;;;;;5121768;28;20452;-68
2021/11/15 12:31:52;;;;;;;29.90;18.47;;;8.60;99.90;;;;;;5121681;28;20433;-68
2021/11/15 12:34:21;;;;;;;28.37;17.83;;;8.70;99.90;;;;;;5120751;28;20892;-68
2021/11/15 12:36:54;;;;;;;33.70;17.57;;;8.70;99.90;;;;;;5120142;28;20461;-68
2021/11/15 12:39:23;;;;;;;32.10;17.07;;;8.70;99.90;;;;;;5120047;28;20652;-67
2021/11/15 12:41:52;;;;;;;26.83;18.43;;;8.70;99.90;;;;;;5120071;28;20484;-68
2021/11/15 12:44:28;;;;;;;27.03;18.03;;;8.60;99.90;;;;;;5120490;28;20462;-68
2021/11/15 12:46:58;;;;;;;29.20;17.23;;;8.60;99.90;;;;;;5121073;28;20547;-68